Time;durP1;ratioP1;P1;durP2;ratioP2;P2;SDS_P1;SDS_P2;PMS_P1;PMS_P2;Temp;Humidity;BMP_temperature;BMP_pressure;BME280_temperature;BME280_humidity;BME280_pressure;Samples;Min_cycle;Max_cycle;Signal;HPM_P1;HPM_P2
2022/04/13 00:00:42;;;;;;;;;1.75;1.75;;;;;17.92;92.50;100946.56;5077992;28;45499;-78
2022/04/13 00:03:08;;;;;;;;;3.50;1.00;;;;;17.98;92.83;100958.94;5077702;28;45413;-77
2022/04/13 00:05:34;;;;;;;;;1.00;1.00;;;;;17.94;93.29;100957.94;5076744;28;45371;-77
2022/04/13 00:08:06;;;;;;;;;2.75;2.25;;;;;17.96;93.13;100956.22;5077917;27;45255;-77
2022/04/13 00:10:33;;;;;;;;;1.00;1.00;;;;;17.92;92.79;100954.44;5077985;28;45483;-77
2022/04/13 00:12:58;;;;;;;;;3.50;2.00;;;;;17.91;93.44;100953.53;5077649;27;45721;-77
2022/04/13 00:15:24;;;;;;;;;2.25;2.25;;;;;17.97;92.84;100971.13;5077930;28;45327;-76
2022/04/13 00:17:50;;;;;;;;;2.50;1.00;;;;;17.92;93.62;100968.41;5077968;28;45733;-77
2022/04/13 00:20:15;;;;;;;;;0.75;0.75;;;;;17.97;93.79;100970.25;5077851;28;45629;-77
2022/04/13 00:22:41;;;;;;;;;1.00;1.00;;;;;17.89;94.17;100962.22;5077606;27;45276;-77
2022/04/13 00:25:07;;;;;;;;;2.50;1.50;;;;;17.94;94.10;100981.50;5077425;27;45235;-77
2022/04/13 00:27:33;;;;;;;;;2.00;2.00;;;;;17.89;94.46;100970.97;5076676;27;45494;-77
2022/04/13 00:29:58;;;;;;;;;2.50;1.00;;;;;17.86;95.10;100968.31;5077285;28;45878;-77
2022/04/13 00:32:25;;;;;;;;;2.00;2.00;;;;;17.86;94.81;100972.66;5077493;28;45537;-76
2022/04/13 00:34:51;;;;;;;;;3.00;1.50;;;;;17.89;96.07;100983.19;5079856;27;45422;-77
2022/04/13 00:37:17;;;;;;;;;2.25;1.00;;;;;17.60;96.13;100944.28;5078896;27;45469;-78
2022/04/13 00:39:43;;;;;;;;;4.75;3.00;;;;;17.73;96.09;100953.22;5089445;27;45953;-80
2022/04/13 00:42:09;;;;;;;;;1.25;1.25;;;;;17.89;96.30;100991.03;5077432;28;45845;-83
2022/04/13 00:44:35;;;;;;;;;2.00;2.00;;;;;17.85;96.44;100983.97;5077663;28;45387;-79
2022/04/13 00:47:06;;;;;;;;;0.75;0.75;;;;;17.84;96.33;100971.72;5077707;28;45627;-83
2022/04/13 00:49:31;;;;;;;;;1.50;1.50;;;;;17.73;97.41;100968.94;5078745;27;46086;-78
2022/04/13 00:51:59;;;;;;;;;1.25;1.25;;;;;17.68;99.26;100960.09;5077260;28;45308;-78
2022/04/13 00:54:25;;;;;;;;;2.00;2.00;;;;;17.74;99.11;100978.56;5077575;27;45358;-78
2022/04/13 00:56:55;;;;;;;;;3.75;2.00;;;;;17.72;100.00;100981.13;5077135;28;45374;-79
2022/04/13 00:59:23;;;;;;;;;1.25;1.00;;;;;17.57;99.61;100952.94;5076974;28;45373;-78
2022/04/13 01:01:49;;;;;;;;;1.50;1.00;;;;;17.71;100.00;100976.75;5077292;28;45699;-80
2022/04/13 01:04:16;;;;;;;;;2.00;2.00;;;;;17.71;100.00;100973.25;5077269;28;45433;-79
2022/04/13 01:06:43;;;;;;;;;1.00;1.00;;;;;17.68;99.80;100968.84;5076953;28;45181;-78
2022/04/13 01:09:12;;;;;;;;;2.50;2.50;;;;;17.56;100.00;100945.06;5076814;28;46202;-79
2022/04/13 01:11:37;;;;;;;;;2.75;2.75;;;;;17.64;100.00;100967.94;5076931;28;45353;-78
2022/04/13 01:14:03;;;;;;;;;5.25;1.75;;;;;17.55;100.00;100956.41;5058563;28;45330;-78
2022/04/13 01:16:29;;;;;;;;;2.75;2.75;;;;;17.64;100.00;100975.78;5077146;28;45421;-77
2022/04/13 01:18:55;;;;;;;;;4.00;1.75;;;;;17.57;100.00;100959.94;5077522;28;46034;-83
2022/04/13 01:21:44;;;;;;;;;2.50;2.50;;;;;17.68;100.00;100978.44;5061090;28;45790;-82
2022/04/13 01:24:11;;;;;;;;;2.50;1.75;;;;;17.69;100.00;100975.88;5077054;28;45496;-77
2022/04/13 01:26:37;;;;;;;;;2.00;2.00;;;;;17.70;100.00;100981.97;5076870;28;45474;-77
2022/04/13 01:29:03;;;;;;;;;1.00;1.00;;;;;17.55;100.00;100956.41;5076373;28;45430;-76
2022/04/13 01:31:29;;;;;;;;;1.75;1.75;;;;;17.74;100.00;100992.53;5076599;27;45717;-76
2022/04/13 01:33:56;;;;;;;;;1.75;1.75;;;;;17.72;99.98;100994.22;5077057;27;45326;-76
2022/04/13 01:36:22;;;;;;;;;2.75;2.50;;;;;17.77;100.00;100991.69;5077385;28;45252;-79
2022/04/13 01:38:47;;;;;;;;;3.00;3.00;;;;;17.76;100.00;100998.69;5077012;28;45989;-79
2022/04/13 01:41:13;;;;;;;;;2.00;2.00;;;;;17.55;100.00;100957.25;5076443;27;45324;-78
2022/04/13 01:43:41;;;;;;;;;3.25;3.00;;;;;17.74;100.00;100996.91;5076705;28;45244;-78
2022/04/13 01:46:07;;;;;;;;;1.00;1.00;;;;;17.64;100.00;100975.78;5076577;28;45494;-78
2022/04/13 01:48:33;;;;;;;;;2.50;2.00;;;;;17.76;100.00;100997.81;5076451;28;45612;-78
2022/04/13 01:50:59;;;;;;;;;2.25;1.75;;;;;17.63;100.00;100978.34;5076257;28;45512;-77
2022/04/13 01:53:25;;;;;;;;;3.25;1.25;;;;;17.72;100.00;100985.50;5076783;28;45976;-78
2022/04/13 01:55:51;;;;;;;;;3.50;2.00;;;;;17.77;100.00;101002.16;5058924;28;45438;-78
2022/04/13 01:58:17;;;;;;;;;1.50;1.50;;;;;17.69;100.00;100982.81;5076622;27;45236;-78
2022/04/13 02:00:43;;;;;;;;;2.00;2.00;;;;;17.72;100.00;100989.00;5076366;28;45288;-78
2022/04/13 02:03:08;;;;;;;;;2.00;2.00;;;;;17.66;100.00;100985.38;5076295;28;45422;-79
2022/04/13 02:05:34;;;;;;;;;2.00;1.75;;;;;17.78;100.00;101007.44;5076525;28;45586;-78
2022/04/13 02:08:00;;;;;;;;;1.00;1.00;;;;;17.77;99.99;101000.44;5076010;28;45461;-78
2022/04/13 02:10:25;;;;;;;;;2.00;2.00;;;;;17.88;100.00;101013.72;5076273;28;45437;-79
2022/04/13 02:12:52;;;;;;;;;3.25;3.00;;;;;17.86;100.00;101010.22;5076117;27;45425;-78
2022/04/13 02:15:18;;;;;;;;;2.75;2.00;;;;;17.88;99.80;101018.09;5076851;28;45500;-80
2022/04/13 02:17:43;;;;;;;;;2.25;2.25;;;;;17.90;99.53;101032.97;5076683;27;46302;-78
2022/04/13 02:20:09;;;;;;;;;5.00;3.00;;;;;17.90;99.81;101022.50;5079207;28;45482;-79
2022/04/13 02:22:36;;;;;;;;;5.75;3.00;;;;;17.88;100.00;101018.97;5079838;27;45232;-79
2022/04/13 02:25:03;;;;;;;;;2.75;2.75;;;;;17.82;100.00;101012.75;5079883;27;45336;-78
2022/04/13 02:27:29;;;;;;;;;5.00;3.00;;;;;17.86;100.00;101025.94;5079513;27;45271;-79
2022/04/13 02:29:54;;;;;;;;;3.75;2.00;;;;;17.86;100.00;101027.66;5079518;27;45256;-78
2022/04/13 02:32:20;;;;;;;;;3.00;3.00;;;;;17.84;100.00;101025.00;5078543;27;45385;-78
2022/04/13 02:34:48;;;;;;;;;3.25;2.00;;;;;17.79;100.00;101024.03;5080137;28;45426;-79
2022/04/13 02:37:15;;;;;;;;;2.00;2.00;;;;;17.81;100.00;101032.81;5079098;27;45321;-78
2022/04/13 02:39:40;;;;;;;;;3.00;2.00;;;;;17.75;100.00;101032.72;5061342;28;45690;-79
2022/04/13 02:42:06;;;;;;;;;3.00;2.50;;;;;17.67;100.00;101042.13;5079180;27;45243;-77
2022/04/13 02:44:32;;;;;;;;;4.75;3.75;;;;;17.57;100.00;101028.88;5079565;28;45429;-77
2022/04/13 02:46:58;;;;;;;;;4.00;3.75;;;;;17.59;100.00;101031.53;5078753;28;46029;-77
2022/04/13 02:49:23;;;;;;;;;2.50;2.50;;;;;17.49;100.00;101027.84;5079146;28;45308;-78
2022/04/13 02:51:49;;;;;;;;;6.00;3.25;;;;;17.56;100.00;101034.09;5079638;27;45350;-77
2022/04/13 02:54:16;;;;;;;;;3.50;2.25;;;;;17.45;100.00;101020.75;5079613;27;45232;-78
2022/04/13 02:56:41;;;;;;;;;6.50;4.00;;;;;17.54;100.00;101033.16;5078855;27;45522;-76
2022/04/13 02:59:07;;;;;;;;;5.00;4.50;;;;;17.46;100.00;101023.44;5078910;28;45354;-76
2022/04/13 03:01:32;;;;;;;;;4.50;2.25;;;;;17.50;100.00;101034.84;5080836;27;45364;-77
2022/04/13 03:03:58;;;;;;;;;3.00;3.00;;;;;17.48;100.00;101028.69;5080000;28;45433;-78
2022/04/13 03:06:24;;;;;;;;;5.00;5.00;;;;;17.47;100.00;101019.97;5078838;28;45363;-77
2022/04/13 03:08:49;;;;;;;;;4.25;2.75;;;;;17.51;100.00;101033.09;5079359;27;45405;-76
2022/04/13 03:11:15;;;;;;;;;3.00;2.00;;;;;17.48;100.00;101031.31;5079492;28;45260;-78
2022/04/13 03:13:41;;;;;;;;;4.75;4.00;;;;;17.32;100.00;101011.78;5079237;28;45215;-77
2022/04/13 03:16:06;;;;;;;;;3.00;3.00;;;;;17.29;100.00;101007.38;5078416;28;45315;-77
2022/04/13 03:18:32;;;;;;;;;5.00;4.00;;;;;17.41;100.00;101040.75;5078659;28;45249;-77
2022/04/13 03:20:58;;;;;;;;;4.25;4.00;;;;;17.29;100.00;101044.03;5060224;28;45301;-76
2022/04/13 03:23:23;;;;;;;;;3.75;2.50;;;;;17.26;100.00;101053.56;5079280;28;45326;-77
2022/04/13 03:25:49;;;;;;;;;4.50;3.00;;;;;17.15;100.00;101058.53;5078705;28;45949;-78
2022/04/13 03:28:14;;;;;;;;;4.00;3.00;;;;;17.06;100.00;101066.19;5078724;27;45378;-77
2022/04/13 03:30:40;;;;;;;;;3.75;3.75;;;;;16.96;100.00;101067.69;5077192;28;45366;-77
2022/04/13 03:33:06;;;;;;;;;5.00;3.75;;;;;16.96;100.00;101073.84;5078552;27;45536;-77
2022/04/13 03:35:31;;;;;;;;;3.75;3.75;;;;;16.91;100.00;101062.34;5078456;28;46145;-77
2022/04/13 03:37:57;;;;;;;;;3.50;3.00;;;;;16.85;100.00;101059.59;5078134;28;45339;-77
2022/04/13 03:40:23;;;;;;;;;3.75;3.75;;;;;16.90;100.00;101071.03;5078612;28;45490;-76
2022/04/13 03:42:48;;;;;;;;;4.25;3.25;;;;;16.90;100.00;101070.16;5079447;27;45346;-78
2022/04/13 03:45:14;;;;;;;;;4.50;3.50;;;;;16.97;100.00;101083.44;5078650;27;45397;-78
2022/04/13 03:47:41;;;;;;;;;3.00;2.00;;;;;16.97;100.00;101085.16;5078779;28;45524;-77
2022/04/13 03:50:08;;;;;;;;;5.25;4.25;;;;;16.96;100.00;101084.28;5078095;27;45194;-76
2022/04/13 03:52:36;;;;;;;;;3.00;3.00;;;;;16.95;100.00;101077.28;5078564;28;45331;-77
2022/04/13 03:55:04;;;;;;;;;7.75;3.75;;;;;17.01;100.00;101085.28;5077762;27;45450;-76
2022/04/13 03:57:30;;;;;;;;;5.00;4.75;;;;;17.01;100.00;101087.00;5078139;28;45339;-76
2022/04/13 03:59:56;;;;;;;;;4.00;2.75;;;;;17.07;100.00;101087.13;5078013;27;45450;-76
2022/04/13 04:02:22;;;;;;;;;3.50;3.50;;;;;16.83;100.00;101062.19;5078435;28;45319;-78
2022/04/13 04:04:47;;;;;;;;;5.25;4.00;;;;;17.02;100.00;101089.66;5078109;27;45891;-76
2022/04/13 04:07:13;;;;;;;;;4.75;4.75;;;;;17.03;100.00;101093.16;5077724;28;45296;-76
2022/04/13 04:09:38;;;;;;;;;3.00;3.00;;;;;17.02;100.00;101096.63;5077979;27;45429;-79
2022/04/13 04:12:05;;;;;;;;;7.00;5.00;;;;;16.98;100.00;101087.84;5076748;27;45541;-77
2022/04/13 04:14:30;;;;;;;;;5.00;3.50;;;;;16.96;100.00;101094.75;5076406;28;47335;-77
2022/04/13 04:16:56;;;;;;;;;4.25;3.75;;;;;16.95;100.00;101092.13;5085238;27;45396;-76
2022/04/13 04:19:22;;;;;;;;;6.75;4.00;;;;;16.92;100.00;101090.25;5082137;27;45440;-76
2022/04/13 04:21:47;;;;;;;;;7.75;5.50;;;;;16.90;100.00;101094.56;5060107;28;45385;-79
2022/04/13 04:24:13;;;;;;;;;5.50;5.50;;;;;16.95;100.00;101108.69;5076083;27;46885;-77
2022/04/13 04:26:39;;;;;;;;;4.50;4.50;;;;;16.89;100.00;101103.28;5077852;28;45484;-76
2022/04/13 04:29:05;;;;;;;;;5.00;5.00;;;;;16.95;100.00;101119.16;5077714;28;45859;-76
2022/04/13 04:34:15;;;;;;;;;8.50;6.00;;;;;16.92;100.00;101115.53;5077377;28;45880;-78
2022/04/13 04:36:40;;;;;;;;;5.00;5.00;;;;;16.91;100.00;101113.78;5077309;28;45414;-77
2022/04/13 04:39:07;;;;;;;;;7.00;6.25;;;;;16.90;100.00;101118.09;5076914;28;45383;-79
2022/04/13 04:41:33;;;;;;;;;5.00;3.00;;;;;16.90;100.00;101120.72;5076269;28;45277;-78
2022/04/13 04:43:59;;;;;;;;;7.00;7.00;;;;;16.84;100.00;101115.34;5076385;28;46190;-78
2022/04/13 04:46:25;;;;;;;;;5.00;5.00;;;;;16.79;100.00;101114.38;5076794;28;45339;-76
2022/04/13 04:48:51;;;;;;;;;7.00;7.00;;;;;16.87;100.00;101126.78;5075225;28;45474;-77
2022/04/13 04:51:16;;;;;;;;;4.50;3.50;;;;;16.84;100.00;101128.44;5074826;28;45506;-75
2022/04/13 04:53:43;;;;;;;;;7.00;6.00;;;;;16.84;100.00;101131.03;5082368;27;45694;-77
2022/04/13 04:56:09;;;;;;;;;5.00;4.25;;;;;16.82;100.00;101120.56;5076989;27;45493;-85
2022/04/13 04:58:35;;;;;;;;;9.50;6.00;;;;;16.86;100.00;101121.50;5079091;27;45635;-84
2022/04/13 05:01:01;;;;;;;;;8.75;5.00;;;;;16.82;100.00;101117.94;5077522;27;45508;-77
2022/04/13 05:03:27;;;;;;;;;6.50;5.25;;;;;16.78;100.00;101117.84;5083792;27;45335;-87
2022/04/13 05:05:53;;;;;;;;;6.25;5.50;;;;;16.76;100.00;101124.75;5080322;27;45504;-80
2022/04/13 05:08:19;;;;;;;;;4.00;4.00;;;;;16.78;100.00;101121.31;5094953;27;45370;-80
2022/04/13 05:10:50;;;;;;;;;4.75;4.75;;;;;16.77;100.00;101136.97;5093866;27;45172;-77
2022/04/13 05:13:20;;;;;;;;;6.75;5.50;;;;;16.71;100.00;101130.75;5096493;27;45687;-81
2022/04/13 05:15:46;;;;;;;;;7.50;5.50;;;;;16.74;100.00;101137.75;5091904;27;45438;-82
2022/04/13 05:18:12;;;;;;;;;6.50;5.75;;;;;16.73;100.00;101133.41;5075787;28;45470;-81
2022/04/13 05:20:39;;;;;;;;;9.25;4.25;;;;;16.71;100.00;101133.34;5077486;28;45425;-79
2022/04/13 05:23:05;;;;;;;;;7.50;5.00;;;;;16.63;100.00;101116.59;5075600;27;45516;-80
2022/04/13 05:25:31;;;;;;;;;5.50;4.50;;;;;16.69;100.00;101134.19;5077183;28;45798;-81
2022/04/13 05:27:56;;;;;;;;;5.50;5.25;;;;;16.67;100.00;101142.00;5078442;27;45327;-77
2022/04/13 05:30:22;;;;;;;;;6.50;5.25;;;;;16.65;100.00;101137.53;5093944;27;45557;-79
2022/04/13 05:32:58;;;;;;;;;8.00;6.75;;;;;16.65;100.00;101145.38;5099645;27;45320;-81
2022/04/13 05:35:29;;;;;;;;;10.00;7.25;;;;;16.67;100.00;101134.16;5075998;28;45709;-83
2022/04/13 05:37:56;;;;;;;;;8.50;6.75;;;;;16.71;100.00;101145.56;5084412;27;45406;-81
2022/04/13 05:40:23;;;;;;;;;8.75;7.50;;;;;16.55;100.00;101110.31;5056477;27;45391;-80
2022/04/13 05:42:50;;;;;;;;;7.25;6.50;;;;;16.60;100.00;101113.91;5055027;28;45484;-81
2022/04/13 05:45:17;;;;;;;;;5.75;4.75;;;;;16.59;100.00;101116.50;5054241;28;46118;-80
2022/04/13 05:47:43;;;;;;;;;7.75;6.75;;;;;16.65;100.00;101119.25;5056243;28;45434;-81
2022/04/13 05:50:10;;;;;;;;;10.50;7.00;;;;;16.58;100.00;101120.81;5056758;28;45447;-81
2022/04/13 05:52:37;;;;;;;;;10.00;8.50;;;;;16.55;100.00;101110.31;5038949;28;47675;-80
2022/04/13 05:55:03;;;;;;;;;8.25;6.50;;;;;16.67;100.00;101139.38;5059187;28;45211;-80
2022/04/13 05:57:29;;;;;;;;;6.25;5.75;;;;;16.70;100.00;101154.25;5041629;28;45356;-80
2022/04/13 05:59:55;;;;;;;;;8.75;8.75;;;;;16.66;100.00;101153.28;5057780;28;45182;-81
2022/04/13 06:02:21;;;;;;;;;10.25;8.75;;;;;16.68;100.00;101169.00;5056792;28;45371;-79
2022/04/13 06:04:47;;;;;;;;;12.50;7.75;;;;;16.66;100.00;101162.84;5056737;28;45383;-80
2022/04/13 06:07:13;;;;;;;;;10.25;8.25;;;;;16.69;100.00;101169.03;5055632;28;45279;-78
2022/04/13 06:09:39;;;;;;;;;11.25;9.50;;;;;16.76;100.00;101180.53;5056289;28;45309;-80
2022/04/13 06:12:05;;;;;;;;;7.75;6.75;;;;;16.74;100.00;101179.59;5055534;28;46161;-78
2022/04/13 06:14:30;;;;;;;;;11.75;9.50;;;;;16.73;100.00;101176.97;5055513;28;45859;-77
2022/04/13 06:16:56;;;;;;;;;10.00;8.25;;;;;16.82;100.00;101193.78;5055891;28;45330;-81
2022/04/13 06:19:21;;;;;;;;;10.75;7.75;;;;;16.83;100.00;101192.03;5056014;28;45980;-80
2022/04/13 06:21:47;;;;;;;;;10.00;9.75;;;;;16.80;100.00;101190.25;5055773;28;45371;-77
2022/04/13 06:24:13;;;;;;;;;7.00;6.75;;;;;16.78;100.00;101193.66;5055419;28;45356;-80
2022/04/13 06:26:39;;;;;;;;;7.75;6.25;;;;;16.81;100.00;101201.56;5055484;28;45353;-80
2022/04/13 06:29:05;;;;;;;;;13.50;10.25;;;;;16.79;100.00;101195.44;5055376;28;45521;-81
2022/04/13 06:31:30;;;;;;;;;10.75;9.50;;;;;16.77;100.00;101205.84;5055226;28;46178;-79
2022/04/13 06:33:56;;;;;;;;;8.50;8.50;;;;;16.78;100.00;101204.13;5055691;28;45392;-77
2022/04/13 06:36:22;;;;;;;;;6.00;5.75;;;;;16.78;100.00;101207.63;5058031;28;45394;-78
2022/04/13 06:38:48;;;;;;;;;9.00;8.50;;;;;16.81;100.00;101214.63;5060104;28;45633;-78
2022/04/13 06:41:14;;;;;;;;;9.50;8.25;;;;;16.86;100.00;101226.13;5055444;28;45861;-80
2022/04/13 06:43:40;;;;;;;;;11.00;10.00;;;;;16.87;100.00;101235.75;5055291;28;45311;-76
2022/04/13 06:46:06;;;;;;;;;12.75;10.00;;;;;16.86;100.00;101241.81;5055070;28;45421;-76
2022/04/13 06:48:32;;;;;;;;;9.00;9.00;;;;;16.85;100.00;101255.72;5054241;28;45533;-77
2022/04/13 06:50:57;;;;;;;;;9.00;7.75;;;;;16.77;100.00;101242.44;5055000;28;45537;-79
2022/04/13 06:53:24;;;;;;;;;10.25;8.75;;;;;16.84;100.00;101265.31;5054855;28;45885;-78
2022/04/13 06:55:49;;;;;;;;;12.00;10.75;;;;;16.79;100.00;101259.06;5055649;28;45299;-81
2022/04/13 06:58:16;;;;;;;;;8.00;6.25;;;;;16.78;100.00;101264.28;5055140;28;45186;-76
2022/04/13 07:00:42;;;;;;;;;11.50;9.75;;;;;16.79;100.00;101276.50;5054922;28;45393;-83
2022/04/13 07:03:08;;;;;;;;;12.00;9.50;;;;;16.75;100.00;101277.25;5055032;28;45351;-80
2022/04/13 07:05:34;;;;;;;;;17.50;15.50;;;;;16.80;100.00;101287.00;5057384;28;45319;-80
2022/04/13 07:08:00;;;;;;;;;17.00;14.75;;;;;16.80;100.00;101291.31;5058904;28;45497;-81
2022/04/13 07:10:27;;;;;;;;;11.50;10.50;;;;;16.82;100.00;101294.88;5058381;28;46193;-79
2022/04/13 07:12:53;;;;;;;;;12.00;12.00;;;;;16.83;100.00;101300.16;5040470;28;45875;-81
2022/04/13 07:15:19;;;;;;;;;15.25;11.25;;;;;16.78;100.00;101291.28;5058545;28;45452;-78
2022/04/13 07:17:45;;;;;;;;;14.25;12.25;;;;;16.82;100.00;101310.56;5058818;28;45167;-79
2022/04/13 07:20:11;;;;;;;;;11.25;10.00;;;;;16.79;100.00;101303.53;5041234;28;47152;-77
2022/04/13 07:22:52;;;;;;;;;12.00;10.50;;;;;16.80;100.00;101318.38;5059758;28;45896;-78
2022/04/13 07:25:18;;;;;;;;;10.00;8.50;;;;;16.67;100.00;101308.41;5058135;28;45388;-79
2022/04/13 07:27:45;;;;;;;;;12.75;12.25;;;;;16.73;100.00;101313.81;5059280;28;45442;-77
2022/04/13 07:30:11;;;;;;;;;13.00;11.00;;;;;16.69;100.00;101314.56;5057942;28;46048;-78
2022/04/13 07:32:37;;;;;;;;;14.25;12.50;;;;;16.75;100.00;101326.94;5058003;28;45881;-79
2022/04/13 07:35:03;;;;;;;;;9.25;8.75;;;;;16.77;100.00;101330.47;5058032;28;45427;-80
2022/04/13 07:37:31;;;;;;;;;13.50;12.00;;;;;16.77;100.00;101325.25;5058762;28;45334;-79
2022/04/13 07:39:57;;;;;;;;;12.00;9.75;;;;;16.78;100.00;101329.66;5058047;28;46053;-76
2022/04/13 07:42:23;;;;;;;;;11.00;11.00;;;;;16.81;100.00;101332.31;5058660;28;45231;-78
2022/04/13 07:44:49;;;;;;;;;11.25;10.50;;;;;16.80;100.00;101331.44;5058865;28;45292;-77
2022/04/13 07:47:15;;;;;;;;;12.50;12.00;;;;;16.79;100.00;101337.50;5043211;28;45509;-76
2022/04/13 07:49:41;;;;;;;;;13.00;13.00;;;;;16.83;100.00;101333.25;5058736;28;46129;-80
2022/04/13 07:52:08;;;;;;;;;15.50;14.00;;;;;16.84;100.00;101333.31;5057694;28;45483;-81
2022/04/13 07:54:34;;;;;;;;;16.75;15.25;;;;;16.89;100.00;101335.16;5058045;28;45418;-77
2022/04/13 07:56:59;;;;;;;;;16.25;15.50;;;;;16.90;100.00;101332.56;5058116;28;45347;-78
2022/04/13 07:59:25;;;;;;;;;12.50;10.25;;;;;16.87;100.00;101322.91;5057625;28;45469;-79
2022/04/13 08:01:51;;;;;;;;;17.00;15.00;;;;;16.97;100.00;101326.72;5058333;28;45533;-81
2022/04/13 08:04:16;;;;;;;;;12.75;12.75;;;;;16.97;100.00;101324.09;5062739;28;45262;-79
2022/04/13 08:06:42;;;;;;;;;16.25;15.50;;;;;17.02;100.00;101330.31;5061268;28;45304;-79
2022/04/13 08:09:08;;;;;;;;;17.75;16.75;;;;;16.98;100.00;101315.41;5057392;28;46313;-81
2022/04/13 08:11:33;;;;;;;;;16.00;14.50;;;;;17.09;100.00;101339.22;5057742;28;45213;-80
2022/04/13 08:13:59;;;;;;;;;16.50;16.00;;;;;17.13;100.00;101334.94;5058284;28;45242;-81
2022/04/13 08:16:24;;;;;;;;;15.75;15.25;;;;;17.18;100.00;101338.59;5057471;28;45269;-80
2022/04/13 08:18:50;;;;;;;;;16.25;14.75;;;;;17.20;100.00;101336.00;5058199;28;45603;-79
2022/04/13 08:21:15;;;;;;;;;17.50;12.25;;;;;17.17;100.00;101344.66;5058932;28;45979;-78
2022/04/13 08:23:41;;;;;;;;;21.75;16.00;;;;;17.15;100.00;101344.63;5059975;28;45400;-80
2022/04/13 08:26:07;;;;;;;;;14.25;12.75;;;;;17.13;100.00;101346.31;5058583;28;45541;-77
2022/04/13 08:28:32;;;;;;;;;12.75;12.50;;;;;17.04;100.00;101340.84;5058430;28;46071;-77
2022/04/13 08:30:58;;;;;;;;;20.25;15.00;;;;;17.00;100.00;101346.81;5057551;28;45407;-78
2022/04/13 08:33:24;;;;;;;;;16.25;16.25;;;;;17.00;100.00;101346.81;5057725;28;45392;-81
2022/04/13 08:35:50;;;;;;;;;17.25;14.50;;;;;16.98;100.00;101352.03;5058159;28;45577;-81
2022/04/13 08:38:16;;;;;;;;;18.00;15.00;;;;;16.97;100.00;101352.88;5057015;28;46045;-80
2022/04/13 08:40:54;;;;;;;;;18.75;15.25;;;;;17.02;100.00;101355.59;5057556;28;45174;-80
2022/04/13 08:43:30;;;;;;;;;13.50;13.50;;;;;17.02;100.00;101350.38;5057006;28;45344;-76
2022/04/13 08:45:59;;;;;;;;;16.00;16.00;;;;;17.06;100.00;101353.94;5057556;28;45447;-79
2022/04/13 08:48:27;;;;;;;;;18.75;17.00;;;;;17.13;100.00;101369.88;5057122;28;46169;-76
2022/04/13 08:50:58;;;;;;;;;15.50;15.25;;;;;17.17;100.00;101381.28;5058831;28;45298;-79
2022/04/13 08:53:29;;;;;;;;;13.75;12.50;;;;;17.14;100.00;101375.97;5057371;28;45419;-78
2022/04/13 08:55:57;;;;;;;;;17.50;15.75;;;;;17.18;100.00;101385.69;5058175;28;45507;-77
2022/04/13 08:58:44;;;;;;;;;16.25;14.75;;;;;17.18;100.00;101389.16;5058621;28;46243;-77
2022/04/13 09:01:16;;;;;;;;;13.75;11.25;;;;;17.15;100.00;101386.50;5057464;28;45829;-79
2022/04/13 09:03:48;;;;;;;;;13.25;13.25;;;;;17.18;100.00;101389.16;5057450;28;45400;-79
2022/04/13 09:06:15;;;;;;;;;11.75;11.75;;;;;17.21;100.00;101388.38;5057150;28;45398;-80
2022/04/13 09:08:53;;;;;;;;;13.50;13.25;;;;;17.12;100.00;101378.56;5057028;28;45248;-81
2022/04/13 09:11:25;;;;;;;;;15.50;13.50;;;;;17.23;100.00;101391.03;5038041;28;45819;-77
2022/04/13 09:13:51;;;;;;;;;15.75;12.50;;;;;17.24;100.00;101384.97;5057187;28;45360;-80
2022/04/13 09:16:17;;;;;;;;;14.50;13.00;;;;;17.25;100.00;101395.47;5056694;28;45543;-80
2022/04/13 09:18:44;;;;;;;;;19.50;18.25;;;;;17.35;100.00;101408.78;5056735;28;45471;-79
2022/04/13 09:21:17;;;;;;;;;21.00;16.00;;;;;17.39;100.00;101405.41;5056221;28;45845;-78
2022/04/13 09:23:44;;;;;;;;;16.50;16.25;;;;;17.39;100.00;101402.78;5056832;28;45335;-79
2022/04/13 09:26:10;;;;;;;;;20.50;18.25;;;;;17.41;100.00;101401.97;5056414;28;45386;-81
2022/04/13 09:28:37;;;;;;;;;20.50;20.50;;;;;17.43;100.00;101408.16;5055878;28;45431;-79
2022/04/13 09:31:03;;;;;;;;;18.00;17.50;;;;;17.42;100.00;101421.22;5057174;28;45237;-79
2022/04/13 09:33:30;;;;;;;;;18.75;18.25;;;;;17.40;100.00;101418.53;5057578;28;45308;-78
2022/04/13 09:35:55;;;;;;;;;17.25;17.00;;;;;17.41;100.00;101414.19;5058744;28;45178;-78
2022/04/13 09:38:21;;;;;;;;;16.00;14.25;;;;;17.41;100.00;101424.66;5056513;28;46039;-80
2022/04/13 09:40:50;;;;;;;;;14.25;13.00;;;;;17.45;100.00;101423.88;5038032;28;45466;-78
2022/04/13 09:43:24;;;;;;;;;17.00;13.00;;;;;17.46;100.00;101429.19;5055894;28;45317;-81
2022/04/13 09:45:51;;;;;;;;;13.00;11.50;;;;;17.54;100.00;101434.63;5056513;28;45397;-79
2022/04/13 09:48:21;;;;;;;;;13.50;11.25;;;;;17.61;100.00;101428.69;5056110;28;45345;-79
2022/04/13 09:50:49;;;;;;;;;10.75;10.25;;;;;17.69;100.00;101430.59;5056116;28;45375;-80
2022/04/13 09:53:17;;;;;;;;;10.75;8.25;;;;;17.72;100.00;101425.47;5055774;28;45445;-79
2022/04/13 09:55:50;;;;;;;;;11.00;7.50;;;;;17.74;100.00;101418.53;5056565;28;45198;-76
2022/04/13 09:58:22;;;;;;;;;16.00;11.25;;;;;17.84;100.00;101427.47;5055605;28;45654;-79
2022/04/13 10:00:50;;;;;;;;;11.25;11.25;;;;;17.83;100.00;101415.22;5037725;28;45815;-75
2022/04/13 10:03:23;;;;;;;;;13.75;12.50;;;;;17.96;100.00;101422.56;5055504;28;45361;-76
2022/04/13 10:05:51;;;;;;;;;15.75;12.50;;;;;17.97;100.00;101429.59;5056062;28;45421;-79
2022/04/13 10:08:22;;;;;;;;;15.75;14.50;;;;;18.02;100.00;101428.00;5056182;28;45315;-78
2022/04/13 10:10:49;;;;;;;;;14.50;14.50;;;;;18.09;100.00;101436.84;5057139;28;45346;-77
2022/04/13 10:13:41;;;;;;;;;16.25;15.00;;;;;18.15;100.00;101436.13;5056086;28;45486;-78
2022/04/13 10:16:12;;;;;;;;;16.00;14.25;;;;;18.13;100.00;101432.59;5056236;28;45402;-81
2022/04/13 10:18:57;;;;;;;;;15.00;14.00;;;;;18.14;100.00;101437.00;5055325;28;45916;-81
2022/04/13 10:21:45;;;;;;;;;14.50;12.25;;;;;18.09;100.00;101437.75;5055934;28;45189;-80
2022/04/13 10:24:32;;;;;;;;;14.75;13.75;;;;;18.04;100.00;101439.38;5055456;28;45343;-80
2022/04/13 10:27:20;;;;;;;;;15.00;12.75;;;;;18.03;100.00;101441.97;5055706;28;45358;-80
2022/04/13 10:29:47;;;;;;;;;14.00;13.25;;;;;17.92;100.00;101444.31;5055460;28;45514;-80
2022/04/13 10:32:23;;;;;;;;;11.00;11.00;;;;;17.85;100.00;101453.75;5055201;28;45398;-79
2022/04/13 10:34:51;;;;;;;;;10.00;10.00;;;;;17.81;100.00;101458.88;5055848;28;45244;-76
2022/04/13 10:37:19;;;;;;;;;10.25;10.25;;;;;17.81;100.00;101444.00;5055505;28;45403;-77
2022/04/13 10:39:46;;;;;;;;;10.50;9.50;;;;;17.94;100.00;101445.19;5056529;28;45491;-77
2022/04/13 10:42:13;;;;;;;;;11.75;11.50;;;;;18.00;100.00;101434.03;5040415;28;45279;-77
2022/04/13 10:45:03;;;;;;;;;10.00;9.00;;;;;18.11;100.00;101450.88;5060059;28;45312;-78
2022/04/13 10:47:43;;;;;;;;;10.25;8.75;;;;;18.07;100.00;101443.81;5051912;28;45349;-77
2022/04/13 10:50:12;;;;;;;;;10.00;8.50;;;;;18.04;100.00;101449.84;5040142;28;47993;-79
2022/04/13 10:52:59;;;;;;;;;7.25;7.25;;;;;17.97;100.00;101450.56;5058797;28;45851;-79
2022/04/13 10:55:27;;;;;;;;;9.00;7.50;;;;;17.97;100.00;101445.31;5058871;28;45371;-80
2022/04/13 10:57:59;;;;;;;;;14.50;9.25;;;;;18.01;100.00;101449.78;5059220;28;45350;-81
2022/04/13 11:00:27;;;;;;;;;9.50;7.25;;;;;18.11;100.00;101450.88;5059872;28;46083;-81
2022/04/13 11:03:03;;;;;;;;;10.25;8.75;;;;;18.21;100.00;101458.13;5059648;28;45470;-79
2022/04/13 11:05:33;;;;;;;;;8.25;6.25;;;;;18.24;100.00;101447.72;5058782;28;45236;-80
2022/04/13 11:08:14;;;;;;;;;4.00;4.00;;;;;18.30;100.00;101454.84;5058948;28;45430;-81
2022/04/13 11:10:42;;;;;;;;;4.75;4.75;;;;;18.26;100.00;101447.75;5058402;28;46488;-81
2022/04/13 11:13:08;;;;;;;;;3.25;3.25;;;;;18.22;100.00;101436.31;5058261;28;45289;-78
2022/04/13 11:15:45;;;;;;;;;4.25;2.50;;;;;18.21;100.00;101442.38;5058694;28;45392;-79